Time;durP1;ratioP1;P1;durP2;ratioP2;P2;SDS_P1;SDS_P2;PMS_P1;PMS_P2;Temp;Humidity;BMP_temperature;BMP_pressure;BME280_temperature;BME280_humidity;BME280_pressure;Samples;Min_cycle;Max_cycle;Signal;HPM_P1;HPM_P2
2021/06/07 00:01:27;;;;;;;11.57;10.32;;;;;;;15.84;77.59;100577.67;2775298;85;21048;-67
2021/06/07 00:05:30;;;;;;;12.47;9.80;;;;;;;15.87;78.02;100572.48;2774703;85;21559;-67
2021/06/07 00:09:33;;;;;;;10.82;8.08;;;;;;;15.82;78.43;100577.81;2757151;86;21048;-67
2021/06/07 00:13:37;;;;;;;12.93;10.00;;;;;;;15.88;78.27;100576.84;2775297;85;21578;-67
2021/06/07 00:17:40;;;;;;;12.47;9.90;;;;;;;15.89;78.02;100571.85;2775118;85;21051;-67
2021/06/07 00:21:42;;;;;;;10.82;8.38;;;;;;;15.89;78.15;100577.22;2731006;86;21019;-66
2021/06/07 00:25:46;;;;;;;11.43;8.70;;;;;;;15.85;78.30;100580.70;2717309;87;21087;-66
2021/06/07 00:29:47;;;;;;;10.10;8.48;;;;;;;15.87;78.22;100577.84;2733309;86;21039;-66
2021/06/07 00:33:49;;;;;;;9.55;8.05;;;;;;;15.83;77.75;100582.18;2733395;87;21007;-66
2021/06/07 00:37:53;;;;;;;10.30;9.25;;;;;;;15.82;77.77;100577.81;2733444;86;21113;-66
2021/06/07 00:41:54;;;;;;;11.05;8.58;;;;;;;15.78;77.69;100579.12;2734362;87;21034;-66
2021/06/07 00:45:56;;;;;;;13.98;9.90;;;;;;;15.75;77.73;100576.75;2734499;86;21063;-67
2021/06/07 00:49:58;;;;;;;13.43;10.93;;;;;;;15.73;78.24;100573.86;2722666;86;21023;-66
2021/06/07 00:54:01;;;;;;;11.78;10.25;;;;;;;15.72;78.25;100573.00;2720480;87;21555;-66
2021/06/07 00:58:06;;;;;;;13.50;10.72;;;;;;;15.71;78.21;100570.84;2734516;87;21116;-66
2021/06/07 01:02:08;;;;;;;14.47;8.90;;;;;;;15.70;78.27;100569.16;2734656;86;21038;-66
2021/06/07 01:06:10;;;;;;;11.80;10.70;;;;;;;15.71;78.34;100568.64;2734573;87;21031;-67
2021/06/07 01:10:13;;;;;;;11.25;9.25;;;;;;;15.66;78.36;100566.44;2734614;87;21109;-66
2021/06/07 01:14:16;;;;;;;10.53;9.43;;;;;;;15.62;78.66;100566.37;2734613;87;20987;-66
2021/06/07 01:18:20;;;;;;;12.90;9.48;;;;;;;15.50;78.93;100563.07;2734827;87;21367;-67
2021/06/07 01:22:22;;;;;;;11.35;10.25;;;;;;;15.50;78.80;100561.73;2734618;87;20995;-67
2021/06/07 01:26:26;;;;;;;15.63;11.22;;;;;;;15.47;78.83;100561.21;2734375;87;21071;-67
2021/06/07 01:30:33;;;;;;;10.98;9.13;;;;;;;15.43;78.98;100560.66;2735071;87;21086;-67
2021/06/07 01:34:35;;;;;;;11.20;9.40;;;;;;;15.43;79.11;100560.66;2734564;86;21091;-67
2021/06/07 01:38:38;;;;;;;14.53;11.15;;;;;;;15.39;79.43;100560.11;2734340;86;21094;-67
2021/06/07 01:42:40;;;;;;;11.53;8.45;;;;;;;15.40;79.93;100562.30;2733172;87;21083;-67
2021/06/07 01:46:42;;;;;;;10.23;7.80;;;;;;;15.23;79.40;100564.80;2733167;87;21082;-67
2021/06/07 01:50:45;;;;;;;10.43;9.03;;;;;;;15.11;79.07;100561.95;2731011;86;21063;-67
2021/06/07 01:54:47;;;;;;;12.13;9.65;;;;;;;15.00;78.78;100553.62;2728683;87;21945;-67
2021/06/07 01:58:49;;;;;;;12.85;10.95;;;;;;;14.82;79.43;100556.25;2728833;87;21044;-67
2021/06/07 02:02:51;;;;;;;11.30;9.53;;;;;;;14.74;80.16;100558.80;2728944;86;21556;-66
2021/06/07 02:06:52;;;;;;;12.85;9.23;;;;;;;14.73;80.29;100555.77;2728687;87;21654;-67
2021/06/07 02:11:01;;;;;;;12.28;9.83;;;;;;;14.76;80.52;100552.83;2728906;87;21035;-67
2021/06/07 02:15:06;;;;;;;10.93;9.75;;;;;;;14.80;80.69;100553.70;2728624;87;21114;-66
2021/06/07 02:19:10;;;;;;;13.07;11.33;;;;;;;14.83;80.50;100556.59;2729364;87;21143;-67
2021/06/07 02:23:11;;;;;;;12.18;10.40;;;;;;;14.88;79.81;100558.84;2728088;86;21039;-67
2021/06/07 02:27:13;;;;;;;12.55;9.70;;;;;;;14.82;79.83;100557.08;2728877;87;21061;-66
2021/06/07 02:31:15;;;;;;;12.58;9.03;;;;;;;14.81;79.91;100559.92;2728950;87;21039;-67
2021/06/07 02:35:20;;;;;;;11.22;8.63;;;;;;;14.79;79.93;100550.68;2728681;87;21079;-67
2021/06/07 02:39:23;;;;;;;15.43;10.13;;;;;;;14.84;79.90;100552.92;2728832;87;21035;-67
2021/06/07 02:43:24;;;;;;;11.63;9.78;;;;;;;14.83;79.79;100550.73;2728838;86;21019;-67
2021/06/07 02:47:26;;;;;;;16.35;11.30;;;;;;;14.80;79.94;100559.06;2728686;87;21026;-67
2021/06/07 02:51:28;;;;;;;17.45;10.20;;;;;;;14.74;80.21;100554.30;2728698;86;21075;-67
2021/06/07 02:55:43;;;;;;;13.43;9.75;;;;;;;14.76;80.54;100556.84;2728173;87;21570;-67
2021/06/07 02:59:45;;;;;;;15.83;11.03;;;;;;;14.81;80.64;100554.56;2728434;86;21090;-69
2021/06/07 03:03:47;;;;;;;203.40;42.35;;;;;;;14.88;80.55;100556.98;2728576;85;21599;-67
2021/06/07 03:07:48;;;;;;;59.65;19.80;;;;;;;14.95;80.22;100559.45;2728710;87;21015;-68
2021/06/07 03:11:51;;;;;;;37.15;15.58;;;;;;;14.89;80.56;100561.35;2728632;85;21071;-67
2021/06/07 03:15:56;;;;;;;21.82;12.00;;;;;;;14.90;81.29;100566.23;2728891;86;21039;-67
2021/06/07 03:19:59;;;;;;;29.55;12.82;;;;;;;14.93;81.93;100570.77;2729052;87;21008;-67
2021/06/07 03:24:00;;;;;;;14.85;11.75;;;;;;;14.94;82.15;100581.01;2726771;86;21106;-71
2021/06/07 03:28:04;;;;;;;16.97;11.10;;;;;;;14.93;82.19;100588.19;2684748;88;21556;-70
2021/06/07 03:32:07;;;;;;;18.35;10.48;;;;;;;14.89;82.44;100591.33;2685275;88;21094;-70
2021/06/07 03:36:10;;;;;;;21.52;13.18;;;;;;;14.74;83.86;100589.59;2684828;88;21055;-70
2021/06/07 03:40:20;;;;;;;22.02;11.88;;;;;;;14.77;84.90;100592.00;2684804;88;21133;-69
2021/06/07 03:44:22;;;;;;;17.77;11.80;;;;;;;14.74;85.12;100588.25;2683944;88;21083;-68
2021/06/07 03:48:25;;;;;;;18.02;11.55;;;;;;;14.83;86.11;100578.84;2684877;88;21055;-70
2021/06/07 03:52:27;;;;;;;14.73;10.23;;;;;;;15.02;86.37;100582.95;2684702;88;21496;-69
2021/06/07 03:56:28;;;;;;;262.65;55.08;;;;;;;15.17;86.61;100588.66;2685005;88;21031;-70
2021/06/07 04:00:33;;;;;;;18.23;13.38;;;;;;;15.30;86.78;100589.64;2685128;88;20999;-69
2021/06/07 04:04:36;;;;;;;16.82;12.07;;;;;;;15.52;86.89;100594.59;2685067;88;21039;-71
2021/06/07 04:08:38;;;;;;;18.20;12.35;;;;;;;15.76;86.05;100587.81;2685092;88;21070;-67
2021/06/07 04:12:41;;;;;;;17.05;13.32;;;;;;;15.93;85.84;100592.03;2685266;88;21027;-67
2021/06/07 04:16:43;;;;;;;18.05;11.68;;;;;;;16.12;85.71;100590.53;2685597;88;21035;-68
2021/06/07 04:20:45;;;;;;;16.70;13.62;;;;;;;16.54;84.93;100594.34;2685478;88;21039;-69
2021/06/07 04:24:47;;;;;;;27.80;14.33;;;;;;;16.59;83.73;100592.54;2685403;87;21551;-69
2021/06/07 04:28:48;;;;;;;13.70;12.25;;;;;;;16.57;83.91;100593.20;2684929;87;21018;-70
2021/06/07 04:32:52;;;;;;;13.90;11.75;;;;;;;16.61;84.56;100589.19;2685306;87;21070;-70
2021/06/07 04:36:54;;;;;;;13.60;11.28;;;;;;;17.04;86.19;100592.48;2684728;88;21162;-72
2021/06/07 04:40:56;;;;;;;19.77;12.65;;;;;;;17.55;85.18;100593.83;2684282;88;21114;-72
2021/06/07 04:44:58;;;;;;;18.10;13.13;;;;;;;18.05;86.20;100589.91;2684746;88;21122;-71
2021/06/07 04:49:01;;;;;;;17.90;14.13;;;;;;;18.44;83.67;100593.76;2684807;88;21059;-71
2021/06/07 04:53:06;;;;;;;16.67;13.05;;;;;;;18.69;81.48;100597.26;2684396;88;21576;-71
2021/06/07 04:57:08;;;;;;;14.43;12.95;;;;;;;19.43;82.15;100592.13;2684861;88;21583;-71
2021/06/07 05:01:12;;;;;;;15.40;11.88;;;;;;;20.36;79.19;100594.87;2685300;88;21050;-70
2021/06/07 05:05:14;;;;;;;15.80;12.20;;;;;;;21.04;77.14;100591.84;2685472;88;21086;-72
2021/06/07 05:09:16;;;;;;;15.72;13.53;;;;;;;21.86;75.96;100591.77;2685177;88;21086;-70
2021/06/07 05:13:17;;;;;;;15.13;13.53;;;;;;;22.42;72.06;100582.05;2685475;88;21584;-68
2021/06/07 05:17:19;;;;;;;19.52;11.63;;;;;;;22.91;69.87;100579.77;2685680;88;21062;-69
2021/06/07 05:21:21;;;;;;;17.02;11.68;;;;;;;23.22;68.59;100587.95;2686027;88;21095;-69
2021/06/07 05:25:24;;;;;;;12.88;10.28;;;;;;;23.70;66.35;100590.31;2685897;88;21687;-71
2021/06/07 05:29:26;;;;;;;12.82;8.73;;;;;;;23.95;64.82;100590.57;2685751;88;21070;-70
2021/06/07 05:33:28;;;;;;;11.88;7.95;;;;;;;24.17;63.09;100590.91;2685804;88;21039;-68
2021/06/07 05:37:30;;;;;;;8.63;7.67;;;;;;;24.30;64.23;100593.64;2686534;87;21082;-70
2021/06/07 05:41:31;;;;;;;10.23;7.83;;;;;;;24.32;64.00;100594.80;2686290;87;21114;-71
2021/06/07 05:45:34;;;;;;;10.95;9.80;;;;;;;24.46;63.67;100601.06;2686360;88;21023;-68
2021/06/07 05:49:38;;;;;;;9.63;8.33;;;;;;;24.36;63.79;100594.15;2686490;88;21027;-68
2021/06/07 05:53:39;;;;;;;14.80;9.10;;;;;;;24.63;63.24;100591.42;2686168;88;21667;-67
2021/06/07 05:57:41;;;;;;;13.72;9.43;;;;;;;24.54;63.91;100595.39;2686602;88;21063;-68
2021/06/07 06:01:42;;;;;;;9.70;8.65;;;;;;;24.29;63.50;100600.13;2687050;88;21039;-69
2021/06/07 06:05:44;;;;;;;12.10;8.75;;;;;;;24.12;63.37;100615.16;2686081;88;21078;-69
2021/06/07 06:09:46;;;;;;;11.12;8.98;;;;;;;23.70;64.25;100612.04;2685939;88;21591;-68
2021/06/07 06:13:49;;;;;;;15.75;9.35;;;;;;;23.41;65.43;100605.06;2686554;88;21099;-69
2021/06/07 06:17:52;;;;;;;13.65;9.33;;;;;;;23.20;65.73;100614.45;2686048;88;21031;-70
2021/06/07 06:21:54;;;;;;;11.63;9.40;;;;;;;23.12;66.61;100609.19;2686136;88;21038;-67
2021/06/07 06:25:56;;;;;;;16.67;9.70;;;;;;;23.36;67.98;100610.58;2686523;88;21035;-70
2021/06/07 06:29:59;;;;;;;9.93;8.90;;;;;;;23.66;66.71;100608.06;2686405;88;21107;-69
2021/06/07 06:34:02;;;;;;;13.48;7.67;;;;;;;23.72;66.48;100613.20;2686598;88;21090;-68
2021/06/07 06:38:04;;;;;;;13.93;10.75;;;;;;;23.60;65.97;100613.79;2686585;88;21101;-70
2021/06/07 06:42:07;;;;;;;13.08;10.18;;;;;;;23.36;65.63;100617.88;2686439;88;21130;-70
2021/06/07 06:46:09;;;;;;;12.55;10.05;;;;;;;23.13;66.65;100612.75;2686625;88;21082;-70
2021/06/07 06:50:13;;;;;;;15.72;9.60;;;;;;;23.34;68.80;100613.17;2686619;87;21078;-67
2021/06/07 06:54:15;;;;;;;11.12;9.93;;;;;;;23.92;68.31;100611.88;2715312;87;21023;-68
2021/06/07 06:58:17;;;;;;;13.58;9.53;;;;;;;24.34;66.20;100619.34;2715136;87;21038;-67
2021/06/07 07:02:20;;;;;;;10.70;9.55;;;;;;;24.79;64.40;100619.25;2715596;87;21073;-71
2021/06/07 07:06:25;;;;;;;13.32;10.53;;;;;;;25.28;62.87;100618.89;2715590;87;21153;-67
2021/06/07 07:10:26;;;;;;;13.85;11.25;;;;;;;25.61;61.76;100616.03;2772277;86;21046;-69
2021/06/07 07:14:27;;;;;;;16.57;11.55;;;;;;;25.86;61.64;100621.23;2772362;86;21009;-70
2021/06/07 07:18:29;;;;;;;14.25;11.85;;;;;;;25.81;61.10;100624.09;2772154;86;21022;-69
2021/06/07 07:22:31;;;;;;;13.88;11.63;;;;;;;25.95;60.91;100620.75;2772685;86;21081;-68
2021/06/07 07:26:32;;;;;;;13.38;11.28;;;;;;;26.02;60.80;100629.40;2772685;86;21038;-68
2021/06/07 07:30:38;;;;;;;14.58;12.28;;;;;;;25.97;61.88;100632.81;2772530;86;21030;-69
2021/06/07 07:34:40;;;;;;;13.70;11.85;;;;;;;26.29;62.20;100630.61;2772800;86;21022;-68
2021/06/07 07:38:42;;;;;;;11.20;9.23;;;;;;;26.57;59.41;100632.89;2772669;86;21061;-70
2021/06/07 07:42:44;;;;;;;12.15;10.95;;;;;;;26.64;59.50;100626.01;2772392;86;21045;-69
2021/06/07 07:46:46;;;;;;;11.08;9.98;;;;;;;26.71;59.10;100628.13;2773069;86;21014;-70
2021/06/07 07:50:48;;;;;;;10.90;9.90;;;;;;;26.82;59.22;100625.19;2772621;86;21021;-71
2021/06/07 07:54:52;;;;;;;14.18;11.33;;;;;;;27.05;58.63;100626.44;2772239;84;21026;-69
2021/06/07 07:58:54;;;;;;;32.90;13.08;;;;;;;27.38;58.83;100619.74;2772267;86;21537;-67
2021/06/07 08:02:58;;;;;;;11.63;10.43;;;;;;;27.55;58.56;100624.06;2772536;86;20974;-69
2021/06/07 08:07:00;;;;;;;23.25;12.65;;;;;;;27.73;58.22;100623.71;2772645;86;21033;-68
2021/06/07 08:11:02;;;;;;;17.67;11.68;;;;;;;27.76;58.19;100624.61;2772385;86;20966;-68
2021/06/07 08:15:07;;;;;;;11.12;10.13;;;;;;;27.70;57.80;100625.00;2772513;86;21034;-70
2021/06/07 08:19:08;;;;;;;;;;;;;;;27.63;57.17;100619.66;2774997;86;21058;-69
2021/06/07 08:23:10;;;;;;;11.40;9.28;;;;;;;27.53;56.63;100619.91;2772483;86;20111;-67
2021/06/07 08:27:12;;;;;;;9.93;8.80;;;;;;;27.80;58.38;100622.55;2772520;86;21029;-69
2021/06/07 08:31:14;;;;;;;11.33;8.75;;;;;;;27.66;55.25;100616.97;2772499;86;21069;-67
2021/06/07 08:35:17;;;;;;;12.82;10.30;;;;;;;27.59;57.48;100630.72;2772614;86;21061;-69
2021/06/07 08:39:19;;;;;;;10.38;8.23;;;;;;;27.93;58.39;100619.33;2772348;86;21030;-69
2021/06/07 08:43:23;;;;;;;8.85;7.97;;;;;;;28.06;55.44;100619.10;2772589;86;21044;-68
2021/06/07 08:47:26;;;;;;;59.03;15.83;;;;;;;28.26;55.89;100619.34;2773003;86;21033;-68
2021/06/07 08:51:27;;;;;;;10.35;8.18;;;;;;;28.31;55.38;100618.12;2773142;85;21049;-69
2021/06/07 08:55:31;;;;;;;10.93;8.75;;;;;;;28.32;54.27;100617.05;2776911;84;21705;-69
2021/06/07 08:59:33;;;;;;;9.80;8.75;;;;;;;28.30;53.85;100619.72;2776770;85;20998;-68
2021/06/07 09:03:35;;;;;;;11.57;10.38;;;;;;;28.49;57.68;100618.54;2776864;85;21041;-68
2021/06/07 09:08:04;;;;;;;19.50;9.88;;;;;;;28.73;56.34;100617.70;2777082;85;21075;-71
2021/06/07 09:12:11;;;;;;;8.40;7.55;;;;;;;28.93;55.49;100605.02;2789550;84;20970;-67
2021/06/07 09:16:13;;;;;;;9.20;6.85;;;;;;;28.95;51.96;100615.74;2754300;85;21061;-68
2021/06/07 09:20:21;;;;;;;7.58;6.40;;;;;;;28.99;52.66;100620.50;2776683;85;21041;-69
2021/06/07 09:24:24;;;;;;;7.03;6.35;;;;;;;29.08;51.61;100612.72;2776880;85;21053;-69
2021/06/07 09:28:25;;;;;;;8.78;7.42;;;;;;;29.06;51.10;100625.82;2776778;85;21070;-69
2021/06/07 09:32:27;;;;;;;35.60;9.80;;;;;;;28.88;51.30;100620.79;2776397;85;21034;-68
2021/06/07 09:36:32;;;;;;;9.70;8.03;;;;;;;28.74;51.77;100620.19;2776824;85;21025;-68
2021/06/07 09:40:34;;;;;;;8.95;8.20;;;;;;;28.77;52.69;100619.70;2776744;85;21158;-69
2021/06/07 09:44:47;;;;;;;11.53;8.38;;;;;;;28.91;53.98;100614.86;2777316;85;21009;-70
2021/06/07 09:48:48;;;;;;;10.08;7.33;;;;;;;28.96;52.05;100609.20;2777175;85;21002;-69
2021/06/07 09:52:55;;;;;;;9.30;8.10;;;;;;;28.97;51.95;100599.91;2775090;85;21018;-67
2021/06/07 09:56:57;;;;;;;12.75;8.28;;;;;;;29.17;52.07;100589.89;2816366;84;21026;-70
2021/06/07 10:00:59;;;;;;;8.25;7.47;;;;;;;29.33;50.72;100590.50;2818847;84;21034;-70
2021/06/07 10:05:01;;;;;;;8.63;7.72;;;;;;;29.41;51.40;100586.57;2819839;84;20978;-70
2021/06/07 10:09:12;;;;;;;8.15;7.33;;;;;;;29.56;52.48;100593.42;2820011;84;21058;-68
2021/06/07 10:13:14;;;;;;;5.92;4.75;;;;;;;29.72;51.01;100591.78;2820096;84;21018;-67
2021/06/07 10:17:15;;;;;;;4.30;3.95;;;;;;;29.87;47.16;100588.47;2794037;84;21014;-70
2021/06/07 10:21:17;;;;;;;7.37;4.78;;;;;;;29.86;43.93;100590.40;2819801;84;21036;-68
2021/06/07 10:25:19;;;;;;;7.20;6.47;;;;;;;29.82;47.31;100578.27;2820076;84;20982;-68
2021/06/07 10:29:21;;;;;;;4.95;4.35;;;;;;;29.86;49.87;100590.40;2819637;84;21021;-70
2021/06/07 10:33:33;;;;;;;3.52;2.90;;;;;;;30.04;48.48;100592.64;2819977;84;21045;-68
2021/06/07 10:37:35;;;;;;;5.80;3.42;;;;;;;29.84;43.67;100565.14;2819459;84;20998;-68
2021/06/07 10:41:37;;;;;;;3.58;3.25;;;;;;;30.01;43.71;100589.81;2744690;85;21061;-69
2021/06/07 10:45:42;;;;;;;6.58;4.47;;;;;;;30.22;44.04;100584.70;2754549;86;21383;-69
2021/06/07 10:49:49;;;;;;;;;;;;;;;30.24;45.21;100582.52;2756541;86;21029;-69
2021/06/07 10:53:53;;;;;;;6.28;4.10;;;;;;;30.32;43.51;100578.00;2754660;86;20109;-68
2021/06/07 10:58:05;;;;;;;6.20;4.70;;;;;;;30.41;42.77;100580.31;2754788;86;21109;-68
2021/06/07 11:02:12;;;;;;;4.15;3.65;;;;;;;30.53;45.10;100575.56;2753485;86;21010;-67
2021/06/07 11:06:18;;;;;;;5.25;4.50;;;;;;;30.68;42.87;100567.29;2754024;86;21037;-70
2021/06/07 11:10:33;;;;;;;5.05;3.83;;;;;;;30.69;41.67;100567.02;2757360;84;21058;-69
2021/06/07 11:15:08;;;;;;;5.78;4.05;;;;;;;30.81;44.12;100568.27;2773786;86;20966;-69
2021/06/07 11:19:15;;;;;;;4.50;4.10;;;;;;;30.74;42.73;100567.08;2773772;86;21522;-68
2021/06/07 11:23:21;;;;;;;5.87;5.28;;;;;;;30.60;42.81;100566.59;2773392;86;20982;-69
2021/06/07 11:27:37;;;;;;;6.95;5.47;;;;;;;30.47;44.19;100556.00;2773633;86;20986;-68
2021/06/07 11:31:42;;;;;;;4.65;4.25;;;;;;;30.39;46.43;100553.67;2773414;84;21011;-69
2021/06/07 11:35:45;;;;;;;4.78;4.33;;;;;;;30.30;43.63;100551.37;2773402;86;21046;-69
2021/06/07 11:39:53;;;;;;;6.42;4.55;;;;;;;30.27;43.11;100553.25;2772948;86;21085;-70
2021/06/07 11:43:55;;;;;;;6.50;4.75;;;;;;;30.22;43.75;100543.55;2773418;84;20959;-72
2021/06/07 11:47:57;;;;;;;5.28;4.50;;;;;;;30.20;43.39;100543.81;2773565;86;21029;-68
2021/06/07 11:52:06;;;;;;;7.40;4.53;;;;;;;30.11;46.18;100541.19;2773041;86;21053;-69
2021/06/07 11:56:12;;;;;;;5.25;4.62;;;;;;;30.23;44.19;100527.38;2808472;84;21506;-68
2021/06/07 12:00:15;;;;;;;5.97;4.75;;;;;;;30.29;46.15;100526.91;2833538;83;21579;-70
2021/06/07 12:04:28;;;;;;;7.50;4.95;;;;;;;30.27;44.50;100528.56;2806776;85;21027;-68
2021/06/07 12:08:30;;;;;;;5.33;4.83;;;;;;;30.18;45.66;100528.68;2766364;86;21047;-68
2021/06/07 12:12:33;;;;;;;5.50;5.00;;;;;;;30.10;44.97;100527.19;2760132;86;21553;-70
2021/06/07 12:16:39;;;;;;;6.58;5.35;;;;;;;30.06;45.96;100526.84;2766423;86;21019;-69
2021/06/07 12:20:42;;;;;;;6.08;4.83;;;;;;;29.99;44.63;100523.43;2759521;86;21080;-68
2021/06/07 12:25:26;;;;;;;9.50;5.92;;;;;;;30.08;44.58;100516.20;2757219;86;21051;-68
2021/06/07 12:29:41;;;;;;;6.12;4.87;;;;;;;30.06;45.32;100517.81;2715416;87;21071;-69
2021/06/07 12:33:44;;;;;;;5.53;5.03;;;;;;;30.14;44.79;100506.95;2716296;87;21060;-69
2021/06/07 12:37:53;;;;;;;6.72;4.75;;;;;;;30.15;46.24;100500.39;2717325;87;21059;-69
2021/06/07 12:41:55;;;;;;;4.90;4.25;;;;;;;30.21;42.72;100506.23;2717741;87;21091;-70
2021/06/07 12:46:06;;;;;;;8.60;4.87;;;;;;;30.25;42.45;100503.82;2717318;87;21064;-70
2021/06/07 12:50:21;;;;;;;7.15;5.42;;;;;;;30.29;41.89;100496.21;2717201;87;21012;-69
2021/06/07 12:54:22;;;;;;;5.20;4.62;;;;;;;30.22;42.11;100502.40;2720491;87;21040;-67
2021/06/07 12:58:29;;;;;;;6.00;5.08;;;;;;;30.24;43.80;100497.48;2722541;87;21055;-70
2021/06/07 13:02:33;;;;;;;6.22;5.35;;;;;;;30.29;44.45;100493.47;2722626;87;21050;-68
2021/06/07 13:06:52;;;;;;;6.62;5.58;;;;;;;30.25;43.80;100496.41;2722836;87;20992;-69
2021/06/07 13:10:59;;;;;;;6.75;5.35;;;;;;;30.37;42.32;100489.98;2722493;87;21067;-68
2021/06/07 13:15:01;;;;;;;6.05;5.45;;;;;;;30.42;44.50;100486.78;2722531;87;21092;-68
2021/06/07 13:19:08;;;;;;;7.47;5.62;;;;;;;30.52;43.01;100488.83;2715253;87;21115;-70
2021/06/07 13:23:10;;;;;;;5.92;5.40;;;;;;;30.61;44.27;100488.69;2679574;89;20992;-65
2021/06/07 13:27:25;;;;;;;7.87;5.50;;;;;;;30.63;41.06;100485.14;2679098;89;21062;-67
2021/06/07 13:31:28;;;;;;;5.92;5.40;;;;;;;30.70;42.14;100476.72;2707844;87;21064;-66
2021/06/07 13:35:31;;;;;;;6.78;5.83;;;;;;;30.70;39.96;100471.78;2722813;87;21043;-65
2021/06/07 13:39:33;;;;;;;6.75;5.87;;;;;;;30.76;42.49;100474.86;2679410;89;21078;-63
2021/06/07 13:43:35;;;;;;;9.58;5.87;;;;;;;30.88;43.74;100476.94;2706949;87;21028;-65
2021/06/07 13:47:39;;;;;;;82.10;18.23;;;;;;;30.82;43.80;100473.02;2723932;87;21056;-61
2021/06/07 13:51:42;;;;;;;7.00;6.40;;;;;;;30.75;42.00;100461.67;2723865;87;21136;-63
2021/06/07 13:55:47;;;;;;;7.92;5.35;;;;;;;30.70;42.32;100461.61;2723338;86;21051;-64
2021/06/07 13:59:49;;;;;;;7.25;6.12;;;;;;;30.81;40.84;100457.63;2723760;87;21569;-65
2021/06/07 14:03:58;;;;;;;7.03;6.33;;;;;;;30.87;42.25;100456.06;2723980;87;21011;-62
2021/06/07 14:07:56;;;;;;;;;;;;;;;30.99;43.33;100453.16;2726239;87;21039;-62
2021/06/07 14:11:57;;;;;;;6.95;5.45;;;;;;;31.05;46.35;100451.27;2725172;87;20074;-63
2021/06/07 14:16:00;;;;;;;6.15;5.42;;;;;;;31.08;43.14;100444.44;2724929;87;21054;-62
2021/06/07 14:20:06;;;;;;;8.23;6.33;;;;;;;30.96;42.30;100446.81;2724716;87;20996;-64
2021/06/07 14:28:28;;;;;;;8.48;6.28;;;;;;;30.29;47.83;100441.88;2724589;87;21023;-64
2021/06/07 14:32:31;;;;;;;11.68;5.87;;;;;;;29.97;47.95;100446.08;2724532;87;21056;-64
2021/06/07 14:36:33;;;;;;;9.83;8.83;;;;;;;29.37;46.40;100455.25;2724541;87;21020;-63
2021/06/07 14:40:40;;;;;;;9.65;8.73;;;;;;;28.65;47.88;100452.79;2695222;87;21032;-63
2021/06/07 14:44:42;;;;;;;9.73;8.48;;;;;;;28.00;49.45;100435.53;2680622;89;21027;-63
2021/06/07 14:48:44;;;;;;;323.45;133.57;;;;;;;27.60;50.83;100453.44;2680414;88;21067;-62
2021/06/07 14:52:49;;;;;;;100.62;36.90;;;;;;;27.29;51.78;100455.38;2682071;87;21473;-62
2021/06/07 14:56:54;;;;;;;217.05;81.50;;;;;;;26.97;52.36;100456.98;2711479;86;21043;-63
2021/06/07 15:00:56;;;;;;;72.03;31.70;;;;;;;26.75;53.47;100451.18;2712220;87;21027;-63
2021/06/07 15:04:59;;;;;;;230.65;93.97;;;;;;;26.61;53.84;100451.34;2711849;88;21090;-62
2021/06/07 15:09:01;;;;;;;69.05;32.48;;;;;;;26.51;54.49;100438.23;2734004;86;21023;-63
2021/06/07 15:13:03;;;;;;;13.25;9.75;;;;;;;26.38;54.58;100437.88;2734016;86;20972;-61
2021/06/07 15:17:05;;;;;;;8.93;8.03;;;;;;;26.35;54.82;100427.42;2733915;86;21110;-61
2021/06/07 15:21:07;;;;;;;16.02;11.12;;;;;;;26.36;55.65;100418.19;2733422;86;21027;-62
2021/06/07 15:25:11;;;;;;;35.15;24.25;;;;;;;26.41;56.66;100420.20;2734153;87;21015;-63
2021/06/07 15:29:12;;;;;;;106.70;56.80;;;;;;;26.48;57.53;100418.77;2765776;86;21397;-64
2021/06/07 15:33:15;;;;;;;39.08;20.43;;;;;;;26.49;58.74;100418.55;2737599;87;21007;-62
2021/06/07 15:37:17;;;;;;;115.92;50.58;;;;;;;26.56;58.75;100415.74;2765827;86;21063;-62
2021/06/07 15:41:19;;;;;;;52.55;27.30;;;;;;;26.67;58.82;100414.13;2737062;86;21027;-64
2021/06/07 15:45:21;;;;;;;27.30;16.00;;;;;;;26.73;58.47;100406.92;2765846;86;21047;-62
2021/06/07 15:49:23;;;;;;;10.80;9.70;;;;;;;26.95;60.40;100404.53;2737063;86;21026;-63
2021/06/07 15:53:24;;;;;;;13.50;10.03;;;;;;;27.28;59.12;100400.99;2726300;85;21027;-63
2021/06/07 15:57:27;;;;;;;16.73;10.18;;;;;;;27.63;59.06;100396.14;2760334;86;21051;-63
2021/06/07 16:01:30;;;;;;;9.90;8.55;;;;;;;27.88;58.30;100381.39;2765956;86;21009;-62
2021/06/07 16:05:32;;;;;;;17.82;10.10;;;;;;;28.13;57.37;100378.95;2729223;86;21098;-63
2021/06/07 16:09:34;;;;;;;95.40;39.88;;;;;;;28.26;56.17;100375.95;2766156;85;21072;-63
2021/06/07 16:13:37;;;;;;;12.68;11.20;;;;;;;28.16;56.94;100377.13;2760271;85;21000;-63
2021/06/07 16:21:59;;;;;;;13.22;9.65;;;;;;;27.85;58.02;100367.69;2760342;86;21041;-63
2021/06/07 16:26:02;;;;;;;13.58;9.48;;;;;;;27.89;57.98;100369.39;2765950;84;21021;-63
2021/06/07 16:30:05;;;;;;;36.40;12.60;;;;;;;27.98;58.82;100380.27;2765927;85;20985;-62
2021/06/07 16:34:07;;;;;;;9.65;8.75;;;;;;;28.06;57.32;100369.50;2766362;85;20990;-62
2021/06/07 16:38:10;;;;;;;8.93;8.18;;;;;;;28.11;58.61;100372.89;2766284;86;21013;-62
2021/06/07 16:42:12;;;;;;;8.45;7.37;;;;;;;28.11;58.18;100372.34;2766011;86;21077;-62
2021/06/07 16:46:13;;;;;;;11.18;7.30;;;;;;;28.06;57.99;100364.03;2766162;85;21073;-62
2021/06/07 16:50:19;;;;;;;8.43;6.78;;;;;;;27.96;58.76;100374.73;2766227;86;21054;-64
2021/06/07 16:54:20;;;;;;;10.48;8.08;;;;;;;27.77;58.19;100376.23;2752001;85;21062;-62
2021/06/07 16:58:23;;;;;;;9.20;7.55;;;;;;;27.62;59.38;100372.63;2773735;86;21053;-62
2021/06/07 17:02:25;;;;;;;147.93;30.05;;;;;;;27.49;60.50;100377.76;2773572;85;21029;-62
2021/06/07 17:06:27;;;;;;;12.15;8.40;;;;;;;27.31;62.32;100371.84;2770250;86;21082;-63
2021/06/07 17:10:29;;;;;;;10.45;8.43;;;;;;;27.18;62.85;100376.48;2737316;87;20991;-63
2021/06/07 17:14:39;;;;;;;9.35;7.67;;;;;;;27.07;63.12;100381.36;2737202;87;21027;-63
2021/06/07 17:18:38;;;;;;;9.58;8.68;;;;;;;26.87;62.66;100372.95;2737068;86;21015;-62
2021/06/07 17:22:40;;;;;;;10.58;9.28;;;;;;;26.66;63.37;100380.55;2741798;86;20999;-63
2021/06/07 17:26:42;;;;;;;13.60;10.35;;;;;;;26.51;63.54;100380.12;2741727;87;21043;-63
2021/06/07 17:30:44;;;;;;;10.95;9.85;;;;;;;26.40;63.71;100375.45;2741778;86;21325;-63
2021/06/07 17:34:46;;;;;;;12.03;10.05;;;;;;;26.21;63.72;100376.28;2741611;86;21038;-63
2021/06/07 17:38:47;;;;;;;14.25;10.90;;;;;;;26.13;63.65;100374.36;2740687;86;21042;-63
2021/06/07 17:42:49;;;;;;;18.57;10.35;;;;;;;26.05;64.25;100374.16;2741244;86;21030;-62
2021/06/07 17:46:51;;;;;;;14.75;10.25;;;;;;;25.97;64.59;100376.66;2740763;87;21028;-63
2021/06/07 17:50:53;;;;;;;11.95;9.85;;;;;;;25.91;64.50;100378.90;2756646;86;21034;-63
2021/06/07 17:54:54;;;;;;;13.28;9.90;;;;;;;25.79;64.99;100374.73;2769185;84;21027;-63
2021/06/07 17:58:56;;;;;;;12.65;10.40;;;;;;;25.60;65.09;100376.05;2765188;86;21062;-62
2021/06/07 18:02:58;;;;;;;12.03;9.45;;;;;;;25.53;65.48;100379.37;2765056;86;21035;-63
2021/06/07 18:07:00;;;;;;;18.27;9.35;;;;;;;25.44;65.75;100377.44;2764917;86;20992;-62
2021/06/07 18:11:05;;;;;;;11.12;9.98;;;;;;;25.33;65.10;100378.98;2765097;86;21050;-62
2021/06/07 18:15:08;;;;;;;14.40;9.08;;;;;;;25.20;64.67;100388.09;2759341;86;21031;-63
2021/06/07 18:19:10;;;;;;;17.30;9.70;;;;;;;25.08;65.18;100387.13;2742549;86;21090;-63
2021/06/07 18:23:12;;;;;;;12.65;10.10;;;;;;;24.90;66.03;100388.70;2719600;86;21010;-63
2021/06/07 18:27:14;;;;;;;11.50;10.40;;;;;;;24.64;66.13;100393.72;2689433;87;21088;-64
2021/06/07 18:31:18;;;;;;;12.40;9.95;;;;;;;24.45;66.55;100392.78;2746479;86;21050;-66
2021/06/07 18:35:19;;;;;;;14.25;10.98;;;;;;;24.25;67.25;100390.42;2733385;87;21067;-70
2021/06/07 18:39:21;;;;;;;12.60;10.63;;;;;;;24.13;67.31;100387.23;2733137;87;21036;-69
2021/06/07 18:43:23;;;;;;;25.15;13.13;;;;;;;24.03;67.92;100395.31;2761039;86;21047;-67
2021/06/07 18:47:24;;;;;;;15.03;10.93;;;;;;;23.88;68.72;100394.68;2761600;86;21027;-67